Idalia, CO (80735)

8:36 AM MDT on September 30, 2014 (GMT -0600)
KCOBURLI6 | Change Station
CLOSE
Current Station
Personal Weather Station
Location: Burlington, CO
Elevation: 4117 ft
Nearby Weather Stations

Elev 4117 ft 39.41 °N, 102.35 °W | Updated 3 minutes ago

Clear
Clear
53.4 °F
Feels Like 53.4 °F
N
4.0
Wind Variable Wind from WNW
Gusts 5.0 mph

Today
High -- | Low -- °F
--% Chance of Precip.
Yesterday
High -- | Low -- °F
Precip. -- in
6:44 AM 6:32 PM
Waxing Crescent, 37% visible
Pressure 29.83 in
Visibility 10.0 miles
Clouds Scattered Clouds 12000 ft
Dew Point 49 °F
Humidity 84%
Rainfall 0.01 in
Snow Depth 0 in , 1 in , 0 in
UV 1 out of 12
Pollen 1.30 out of 12
Air Quality Not available.
Flu Activity Not available.
METAR KSYF 301415Z AUTO 21005KT 10SM SCT120 12/08 A2983 RMK AO2 T01230082

More Conditions Fewer Conditions

Pressure 29.83 in
Visibility 10.0 miles
Clouds Scattered Clouds 12000 ft
Dew Point 49 °F
Humidity 84%
Rainfall 0.01 in
Snow Depth 0 in , 1 in , 0 in
UV 1 out of 12
Pollen 1.30 out of 12
Air Quality Not available.
Flu Activity Not available.
METAR KSYF 301415Z AUTO 21005KT 10SM SCT120 12/08 A2983 RMK AO2 T01230082

More Conditions Fewer Conditions

10-Day Weather Forecast

Almanac

Astronomy

Sep. 30, 2014 Rise Set
Actual Time 6:44 AM MDT 6:32 PM MDT
Civil Twilight 6:17 AM MDT 6:59 PM MDT
Nautical Twilight 5:46 AM MDT 7:31 PM MDT
Astronomical Twilight 5:14 AM MDT 8:02 PM MDT
Moon 12:53 PM MDT 11:05 PM MDT
Length of Visible Light 12h 42m
Length of Day
11h 48m
Tomorrow will be 2m 35s shorter.
Waxing Crescent, 37% of the Moon is Illuminated
Today
Waxing Crescent
Oct 1
First Quarter
Oct 8
Full
Oct 15
Last Quarter
Oct 23
New

Today's Extremes

State Highs State Lows

Community

WunderPhotos

Upload Photos

1,757,641 photos uploaded!

WunderBlogs® & News

By Dr. Jeff Masters
Director of Meteorology, Weather Underground
By Kari Strenfel
Meteorologist, Weather Underground
By Christopher C. Burt
Weather Historian, Weather Underground
September 30, 2014
September 30, 2014
September 30, 2014

Nearby

Snow Depth

Station Depth Elevation
Cascade 0 in 8880 ft
Apishapa 1 in 10000 ft
Echo Lake 0 in 10600 ft
Dry Lake 0 in 8400 ft
Cascade #2 1 in 8920 ft

Earthquake Activity

City Distance Mag. Time & Date
No recent earthquake activity has been reported nearby.
Minimum magnitude displayed is 2.5.

Coastal Water Temperatures

Place Temperature
No Stations Reporting

Nearby Weather Stations